Time;durP1;ratioP1;P1;durP2;ratioP2;P2;SDS_P1;SDS_P2;PMS_P1;PMS_P2;Temp;Humidity;BMP_temperature;BMP_pressure;BME280_temperature;BME280_humidity;BME280_pressure;Samples;Min_cycle;Max_cycle;Signal;HPM_P1;HPM_P2
2021/03/30 00:01:49;;;;;;;12.57;7.50;;;;;;;23.31;19.05;95620.63;5074902;28;20051;-43
2021/03/30 00:04:17;;;;;;;9.95;6.70;;;;;;;23.18;19.13;95608.44;5075516;28;20135;-43
2021/03/30 00:06:44;;;;;;;10.85;6.38;;;;;;;23.68;18.44;95604.53;5075394;28;20076;-41
2021/03/30 00:09:11;;;;;;;12.95;6.90;;;;;;;22.37;19.92;95603.97;5074570;28;20052;-42
2021/03/30 00:11:38;;;;;;;10.57;6.95;;;;;;;23.41;19.05;95597.25;5075214;28;20052;-43
2021/03/30 00:14:06;;;;;;;12.57;7.43;;;;;;;24.46;17.92;95597.81;5085489;28;20484;-43
2021/03/30 00:16:33;;;;;;;11.63;7.35;;;;;;;22.46;19.91;95586.00;5087661;28;20048;-43
2021/03/30 00:19:00;;;;;;;13.15;7.07;;;;;;;23.07;19.47;95594.78;5057388;28;20055;-42
2021/03/30 00:21:27;;;;;;;10.80;6.22;;;;;;;22.97;19.56;95589.13;5057371;28;20389;-42
2021/03/30 00:23:54;;;;;;;8.52;6.22;;;;;;;23.57;18.81;95584.78;5075209;28;20052;-43
2021/03/30 00:26:21;;;;;;;12.25;6.65;;;;;;;23.08;19.52;95579.56;5075102;28;20052;-43
2021/03/30 00:28:49;;;;;;;10.45;5.75;;;;;;;25.08;17.49;95586.31;5075116;28;20055;-43
2021/03/30 00:31:16;;;;;;;9.48;5.68;;;;;;;23.99;18.60;95585.19;5074908;28;20040;-43
2021/03/30 00:33:43;;;;;;;11.23;6.20;;;;;;;22.01;20.33;95586.78;5075244;28;20462;-41
2021/03/30 00:36:10;;;;;;;9.75;5.80;;;;;;;23.17;19.29;95582.88;5057473;28;20048;-43
2021/03/30 00:38:37;;;;;;;7.70;5.53;;;;;;;21.70;20.47;95581.91;5075172;28;20052;-43
2021/03/30 00:41:04;;;;;;;8.68;5.43;;;;;;;22.80;19.11;95594.66;5074566;28;20060;-42
2021/03/30 00:43:31;;;;;;;7.95;4.80;;;;;;;21.63;20.75;95584.34;5080314;28;20055;-42
2021/03/30 00:45:58;;;;;;;10.45;6.00;;;;;;;21.89;20.28;95578.78;5088702;28;20055;-43
2021/03/30 00:48:27;;;;;;;8.98;4.82;;;;;;;22.11;20.08;95578.38;5093941;28;20044;-42
2021/03/30 00:50:56;;;;;;;8.10;4.82;;;;;;;21.14;21.00;95567.31;5060186;28;20051;-43
2021/03/30 00:53:42;;;;;;;8.05;4.32;;;;;;;22.73;18.90;95574.69;5060013;28;20048;-44
2021/03/30 00:56:27;;;;;;;8.20;3.92;;;;;;;22.93;18.75;95578.38;5074912;28;20041;-42
2021/03/30 00:58:56;;;;;;;6.07;3.42;;;;;;;22.36;19.33;95573.88;5057251;28;20060;-43
2021/03/30 01:01:23;;;;;;;5.82;3.95;;;;;;;22.57;19.28;95575.66;5077178;28;20060;-43
2021/03/30 01:03:50;;;;;;;4.90;3.28;;;;;;;21.82;19.89;95568.63;5077393;28;20484;-43
2021/03/30 01:06:17;;;;;;;5.57;3.70;;;;;;;23.42;18.31;95572.13;5095112;28;20075;-42
2021/03/30 01:08:54;;;;;;;7.35;3.95;;;;;;;23.87;17.89;95569.97;5095037;28;20048;-43
2021/03/30 01:11:59;;;;;;;6.10;3.83;;;;;;;22.29;18.86;95570.22;5094593;28;20425;-44
2021/03/30 01:14:36;;;;;;;7.10;3.85;;;;;;;22.93;18.42;95569.59;5098556;28;20044;-44
2021/03/30 01:17:24;;;;;;;7.32;4.03;;;;;;;22.87;18.35;95578.91;5080976;28;20056;-42
2021/03/30 01:20:31;;;;;;;6.55;3.50;;;;;;;22.84;18.73;95576.91;5091669;28;20051;-43
2021/03/30 01:23:19;;;;;;;5.28;3.75;;;;;;;21.31;20.28;95569.88;5078420;28;20443;-43
2021/03/30 01:26:12;;;;;;;6.40;4.10;;;;;;;22.12;19.26;95571.97;5060876;28;20045;-42
2021/03/30 01:28:56;;;;;;;7.65;3.85;;;;;;;22.83;18.58;95570.03;5078632;28;20463;-44
2021/03/30 01:31:24;;;;;;;7.97;3.85;;;;;;;21.16;20.40;95567.78;5078236;28;20366;-42
2021/03/30 01:33:53;;;;;;;10.40;4.07;;;;;;;21.61;20.04;95573.25;5078144;28;20047;-43
2021/03/30 01:36:21;;;;;;;7.00;4.03;;;;;;;21.71;19.62;95574.72;5078191;28;20049;-43
2021/03/30 01:38:48;;;;;;;8.23;3.92;;;;;;;21.52;20.12;95569.88;5059478;28;20052;-42
2021/03/30 01:41:16;;;;;;;8.10;4.03;;;;;;;21.89;19.48;95562.78;5060118;28;20049;-43
2021/03/30 01:43:46;;;;;;;7.38;4.30;;;;;;;21.48;20.03;95569.75;5067394;28;20051;-43
2021/03/30 01:46:14;;;;;;;7.07;4.22;;;;;;;21.13;20.61;95573.75;5098238;28;20052;-42
2021/03/30 01:48:45;;;;;;;6.97;4.63;;;;;;;21.17;19.92;95574.66;5080031;28;20331;-43
2021/03/30 01:51:14;;;;;;;8.77;5.25;;;;;;;22.11;19.32;95570.41;5080133;28;20450;-43
2021/03/30 01:53:42;;;;;;;7.22;4.25;;;;;;;21.54;19.45;95579.06;5080293;28;20358;-44
2021/03/30 01:56:14;;;;;;;7.03;4.70;;;;;;;21.08;20.16;95573.91;5079386;28;20044;-42
2021/03/30 01:58:41;;;;;;;10.50;4.47;;;;;;;22.09;19.49;95580.59;5079898;28;20048;-43
2021/03/30 02:01:11;;;;;;;11.95;4.50;;;;;;;21.43;19.91;95569.94;5097962;28;20052;-43
2021/03/30 02:03:40;;;;;;;9.85;4.50;;;;;;;22.06;19.44;95567.94;5079093;28;20060;-42
2021/03/30 02:06:07;;;;;;;6.05;4.63;;;;;;;21.47;19.79;95565.53;5080057;28;20048;-43
2021/03/30 02:08:35;;;;;;;8.25;4.28;;;;;;;21.43;19.85;95559.31;5079826;28;20060;-43
2021/03/30 02:11:03;;;;;;;6.07;3.58;;;;;;;21.25;19.94;95544.59;5079476;28;20048;-43
2021/03/30 02:13:41;;;;;;;7.57;4.18;;;;;;;21.58;19.71;95549.16;5097274;28;20040;-45
2021/03/30 02:16:14;;;;;;;7.43;4.15;;;;;;;20.64;20.35;95552.16;5081465;28;20044;-44
2021/03/30 02:19:08;;;;;;;8.88;4.45;;;;;;;21.28;19.75;95554.56;5080107;28;20051;-55
2021/03/30 02:21:43;;;;;;;8.75;4.07;;;;;;;21.62;19.57;95548.19;5076163;28;20055;-43
2021/03/30 02:24:12;;;;;;;7.57;4.57;;;;;;;21.51;19.49;95541.69;5076706;28;20059;-44
2021/03/30 02:26:45;;;;;;;11.05;4.13;;;;;;;20.37;20.74;95541.94;5059559;28;20363;-42
2021/03/30 02:29:25;;;;;;;9.30;4.35;;;;;;;22.04;19.25;95554.19;5059647;28;20456;-43
2021/03/30 02:31:53;;;;;;;8.05;4.32;;;;;;;20.12;20.73;95547.03;5059729;28;20059;-43
2021/03/30 02:34:25;;;;;;;9.95;4.07;;;;;;;21.65;19.28;95552.06;5077020;28;20047;-42
2021/03/30 02:36:56;;;;;;;7.20;4.32;;;;;;;20.21;20.83;95550.44;5060354;28;20048;-43
2021/03/30 02:39:23;;;;;;;9.18;4.78;;;;;;;20.29;20.96;95546.97;5079821;28;20047;-44
2021/03/30 02:41:51;;;;;;;9.02;4.72;;;;;;;21.13;19.99;95541.84;5079187;28;20051;-44
2021/03/30 02:44:20;;;;;;;7.38;4.50;;;;;;;20.49;20.83;95550.03;5066772;28;20053;-42
2021/03/30 02:46:49;;;;;;;9.18;5.50;;;;;;;21.30;19.80;95557.69;5058931;28;20044;-43
2021/03/30 02:49:17;;;;;;;9.93;6.30;;;;;;;20.35;21.16;95557.44;5076679;28;20071;-43
2021/03/30 02:51:46;;;;;;;12.18;6.60;;;;;;;20.06;21.49;95564.25;5076581;28;20056;-42
2021/03/30 02:54:14;;;;;;;13.75;7.53;;;;;;;20.47;21.15;95557.56;5059100;28;20048;-42
2021/03/30 02:56:42;;;;;;;11.70;7.40;;;;;;;21.18;19.83;95565.56;5076480;28;20040;-42
2021/03/30 02:59:10;;;;;;;14.38;7.28;;;;;;;20.11;21.33;95561.41;5058700;28;20052;-43
2021/03/30 03:01:37;;;;;;;13.15;6.50;;;;;;;20.38;21.13;95559.44;5058900;28;20048;-43
2021/03/30 03:04:04;;;;;;;11.70;6.30;;;;;;;20.01;21.27;95559.88;5058843;28;20490;-42
2021/03/30 03:06:32;;;;;;;11.55;6.10;;;;;;;20.39;20.72;95561.78;5076815;28;20325;-43
2021/03/30 03:08:59;;;;;;;9.20;5.93;;;;;;;21.70;19.36;95559.84;5058455;28;20371;-42
2021/03/30 03:11:27;;;;;;;10.20;6.03;;;;;;;20.46;20.53;95561.31;5058609;28;20324;-48
2021/03/30 03:13:56;;;;;;;13.73;6.53;;;;;;;21.57;19.57;95564.34;5067381;28;20047;-47
2021/03/30 03:16:24;;;;;;;12.52;6.90;;;;;;;19.58;21.96;95564.50;5078985;28;20048;-42
2021/03/30 03:18:52;;;;;;;15.75;8.32;;;;;;;19.46;22.01;95559.78;5078194;28;20376;-42
2021/03/30 03:21:21;;;;;;;14.38;6.97;;;;;;;19.12;22.27;95559.78;5096236;28;20048;-43
2021/03/30 03:23:48;;;;;;;11.52;6.80;;;;;;;19.88;21.35;95562.72;5096379;28;20059;-43
2021/03/30 03:26:15;;;;;;;14.90;6.68;;;;;;;20.83;19.95;95557.84;5078560;28;20051;-43
2021/03/30 03:28:44;;;;;;;13.90;7.15;;;;;;;21.17;19.89;95561.34;5096022;28;20056;-43
2021/03/30 03:31:12;;;;;;;12.48;6.43;;;;;;;19.56;21.74;95556.84;5095917;28;20048;-43
2021/03/30 03:33:39;;;;;;;16.05;6.25;;;;;;;20.41;20.55;95550.88;5094651;28;20552;-42
2021/03/30 03:36:13;;;;;;;14.80;6.43;;;;;;;20.42;20.70;95549.75;5080106;28;20379;-41
2021/03/30 03:38:42;;;;;;;11.20;6.80;;;;;;;20.33;21.04;95558.53;5075831;28;20052;-43
2021/03/30 03:41:18;;;;;;;14.63;6.82;;;;;;;19.75;21.61;95553.06;5075644;28;20367;-42
2021/03/30 03:43:46;;;;;;;13.15;7.13;;;;;;;19.20;22.45;95559.00;5081759;28;20409;-42
2021/03/30 03:46:17;;;;;;;13.15;7.18;;;;;;;19.71;21.54;95558.22;5078088;28;20044;-43
2021/03/30 03:48:45;;;;;;;19.58;10.80;;;;;;;19.74;21.74;95560.25;5095912;28;20055;-42
2021/03/30 03:51:12;;;;;;;16.38;9.90;;;;;;;19.40;22.43;95563.69;5095823;28;20401;-42
2021/03/30 03:53:40;;;;;;;15.70;9.48;;;;;;;20.15;21.09;95559.69;5095643;28;20040;-42
2021/03/30 03:56:08;;;;;;;19.35;10.30;;;;;;;19.13;22.43;95558.69;5078027;28;20048;-42
2021/03/30 03:58:40;;;;;;;21.58;10.85;;;;;;;19.32;22.42;95556.53;5095943;28;20071;-42
2021/03/30 04:01:11;;;;;;;17.45;9.05;;;;;;;20.21;21.25;95555.75;5095559;28;20056;-42
2021/03/30 04:04:01;;;;;;;15.80;8.40;;;;;;;19.68;21.87;95559.63;5077455;28;20048;-42
2021/03/30 04:06:31;;;;;;;20.27;9.65;;;;;;;19.23;22.13;95580.38;5077953;28;20469;-42
2021/03/30 04:09:00;;;;;;;19.08;10.57;;;;;;;19.15;22.66;95570.53;5077824;28;20366;-42
2021/03/30 04:11:28;;;;;;;16.90;9.05;;;;;;;18.81;22.81;95573.94;5095619;28;20052;-42
2021/03/30 04:13:58;;;;;;;21.00;11.52;;;;;;;19.53;21.79;95578.69;5077263;28;20044;-42
2021/03/30 04:16:25;;;;;;;23.10;11.55;;;;;;;19.02;22.51;95580.22;5077814;28;20374;-43
2021/03/30 04:18:52;;;;;;;27.48;14.68;;;;;;;19.17;21.91;95586.13;5095477;28;20047;-42
2021/03/30 04:21:32;;;;;;;34.53;17.48;;;;;;;20.58;20.81;95577.34;5095224;28;20044;-42
2021/03/30 04:23:59;;;;;;;45.25;21.73;;;;;;;18.28;23.39;95593.34;5066613;28;20059;-44
2021/03/30 04:26:27;;;;;;;52.13;24.15;;;;;;;18.86;22.92;95594.19;5075295;28;20049;-42
2021/03/30 04:28:55;;;;;;;53.20;23.23;;;;;;;19.23;22.46;95590.19;5075193;28;20142;-43
2021/03/30 04:31:22;;;;;;;21.00;10.15;;;;;;;21.68;20.57;95594.00;5075192;28;20040;-41
2021/03/30 04:33:49;;;;;;;23.25;11.85;;;;;;;23.22;19.94;95590.66;5057775;28;20037;-41
2021/03/30 04:36:16;;;;;;;23.55;12.73;;;;;;;24.14;19.76;95595.09;5075283;28;20041;-41
2021/03/30 04:38:43;;;;;;;20.50;12.25;;;;;;;25.39;18.71;95595.38;5075190;28;20467;-54
2021/03/30 04:41:11;;;;;;;15.50;10.70;;;;;;;27.17;16.53;95587.81;5066806;28;20048;-41
2021/03/30 04:43:38;;;;;;;23.55;11.98;;;;;;;28.73;15.35;95584.16;5083782;28;20055;-42
2021/03/30 04:46:09;;;;;;;18.85;9.95;;;;;;;30.12;13.81;95598.34;5079439;28;20052;-55
2021/03/30 04:48:38;;;;;;;17.73;10.02;;;;;;;30.93;13.07;95584.16;5081087;28;20332;-71
2021/03/30 04:51:05;;;;;;;24.90;13.00;;;;;;;31.21;13.08;95583.38;5080342;28;20483;-43
2021/03/30 04:53:33;;;;;;;20.45;12.07;;;;;;;31.87;12.56;95585.47;5078823;28;20045;-41
2021/03/30 04:56:02;;;;;;;20.50;11.43;;;;;;;31.49;13.55;95587.13;5087062;28;20053;-43
2021/03/30 04:58:29;;;;;;;20.38;11.77;;;;;;;30.58;14.70;95590.31;5078830;28;20059;-43
2021/03/30 05:00:56;;;;;;;29.58;14.63;;;;;;;30.50;15.00;95588.78;5078519;28;20052;-70
2021/03/30 05:03:24;;;;;;;29.20;18.83;;;;;;;30.60;14.98;95595.34;5078893;28;20045;-76
2021/03/30 05:05:51;;;;;;;45.95;25.42;;;;;;;33.38;11.52;95587.44;5079024;28;20390;-49
2021/03/30 05:08:18;;;;;;;49.30;27.25;;;;;;;30.27;12.93;95585.69;5088893;28;20044;-57
2021/03/30 05:10:48;;;;;;;58.97;30.63;;;;;;;26.95;16.11;95595.53;5095239;28;20052;-41
2021/03/30 05:13:15;;;;;;;55.80;30.02;;;;;;;25.72;17.21;95581.53;5060742;28;20040;-41
2021/03/30 05:15:42;;;;;;;61.45;28.10;;;;;;;26.35;16.30;95591.91;5085604;28;20048;-41
2021/03/30 05:18:10;;;;;;;51.00;25.77;;;;;;;25.73;16.88;95593.78;5078706;28;20041;-40
2021/03/30 05:20:37;;;;;;;53.58;24.33;;;;;;;24.44;17.88;95584.78;5078071;28;20047;-48
2021/03/30 05:23:04;;;;;;;44.38;19.38;;;;;;;23.77;18.19;95591.84;5078338;28;20079;-41
2021/03/30 05:25:31;;;;;;;32.85;17.70;;;;;;;24.72;18.17;95595.41;5078510;28;20052;-42
2021/03/30 05:27:58;;;;;;;35.65;19.02;;;;;;;23.93;19.53;95597.97;5078369;28;20060;-42
2021/03/30 05:30:26;;;;;;;30.45;15.20;;;;;;;25.17;17.47;95588.78;5078469;28;20481;-42
2021/03/30 05:32:53;;;;;;;25.98;13.50;;;;;;;25.64;16.43;95585.94;5077926;28;20055;-41
2021/03/30 05:35:20;;;;;;;20.75;12.25;;;;;;;24.47;17.59;95591.38;5078166;28;20055;-43
2021/03/30 05:37:47;;;;;;;19.48;9.95;;;;;;;25.42;16.56;95595.44;5079780;28;20060;-42
2021/03/30 05:40:16;;;;;;;12.55;6.35;;;;;;;25.48;15.87;95598.63;5097077;28;20051;-41
2021/03/30 05:42:45;;;;;;;11.00;6.07;;;;;;;25.39;16.33;95600.72;5098423;28;20055;-42
2021/03/30 05:45:14;;;;;;;8.90;6.10;;;;;;;25.25;16.59;95595.09;5082923;28;20048;-42
2021/03/30 05:47:42;;;;;;;7.38;5.13;;;;;;;25.71;15.87;95596.81;5077062;28;20063;-43
2021/03/30 05:50:14;;;;;;;7.15;5.20;;;;;;;26.51;15.50;95603.25;5077416;28;20044;-44
2021/03/30 05:52:53;;;;;;;8.23;4.65;;;;;;;25.85;15.58;95598.22;5077748;28;20362;-42
2021/03/30 05:55:28;;;;;;;8.57;5.05;;;;;;;25.04;16.18;95604.19;5077918;28;20044;-42
2021/03/30 05:57:59;;;;;;;10.73;4.57;;;;;;;24.83;16.19;95609.03;5077514;28;20059;-42
2021/03/30 06:00:36;;;;;;;8.75;4.88;;;;;;;25.04;16.23;95612.22;5076652;28;20053;-42
2021/03/30 06:03:24;;;;;;;10.80;5.28;;;;;;;26.80;14.75;95612.53;5077683;28;20565;-41
2021/03/30 06:05:57;;;;;;;8.27;5.00;;;;;;;25.65;15.68;95614.28;5077578;28;20052;-59
2021/03/30 06:08:26;;;;;;;7.75;5.07;;;;;;;27.46;14.16;95621.19;5077878;28;20071;-57
2021/03/30 06:10:55;;;;;;;7.13;4.80;;;;;;;26.74;14.49;95613.97;5077210;28;20379;-42
2021/03/30 06:13:47;;;;;;;8.40;4.78;;;;;;;25.68;15.42;95612.81;5081605;28;20048;-57
2021/03/30 06:16:35;;;;;;;7.13;4.72;;;;;;;26.25;15.10;95622.69;5097746;28;20426;-41
2021/03/30 06:19:07;;;;;;;7.95;4.53;;;;;;;27.33;14.35;95628.69;5097267;28;20044;-42
2021/03/30 06:21:41;;;;;;;8.05;4.25;;;;;;;27.44;13.89;95629.59;5059598;28;20044;-46
2021/03/30 06:24:24;;;;;;;11.90;4.65;;;;;;;26.71;14.86;95634.25;5077264;28;20439;-42
2021/03/30 06:27:05;;;;;;;7.82;4.47;;;;;;;27.63;14.28;95632.19;5077369;28;20052;-42
2021/03/30 06:29:35;;;;;;;7.05;4.38;;;;;;;28.28;13.97;95627.53;5077062;28;20056;-56
2021/03/30 06:32:17;;;;;;;7.97;5.03;;;;;;;28.01;13.77;95630.31;5077147;28;20075;-42
2021/03/30 06:34:46;;;;;;;6.75;4.72;;;;;;;27.15;14.59;95628.44;5077082;28;20486;-58
2021/03/30 06:37:30;;;;;;;7.45;4.80;;;;;;;28.18;13.76;95629.75;5077141;28;20044;-42
2021/03/30 06:39:59;;;;;;;6.38;4.47;;;;;;;27.48;14.19;95640.38;5076560;28;20060;-42
2021/03/30 06:42:34;;;;;;;8.27;4.47;;;;;;;27.73;13.95;95629.97;5076302;28;20052;-70
2021/03/30 06:45:02;;;;;;;7.65;4.55;;;;;;;28.41;13.53;95626.16;5094781;28;20058;-60
2021/03/30 06:47:29;;;;;;;5.68;4.55;;;;;;;28.38;13.42;95621.50;5097313;28;20052;-66
2021/03/30 06:50:03;;;;;;;6.72;4.53;;;;;;;27.97;13.75;95624.13;5078946;28;20043;-62
2021/03/30 06:52:35;;;;;;;6.68;4.43;;;;;;;29.76;12.09;95625.19;5097145;28;20044;-67
2021/03/30 06:55:04;;;;;;;;;;;;;;;28.53;13.29;95629.31;5097506;28;20055;-54
2021/03/30 06:57:44;;;;;;;7.05;4.15;;;;;;;30.44;11.52;95628.06;5082744;28;19912;-42
2021/03/30 07:00:12;;;;;;;6.03;3.97;;;;;;;29.95;11.68;95626.03;5076701;28;20060;-69
2021/03/30 07:02:42;;;;;;;7.90;4.20;;;;;;;30.75;11.14;95623.91;5076820;28;20486;-65
2021/03/30 07:05:39;;;;;;;19.02;17.67;;;;;;;29.83;12.20;95620.97;5076678;28;20052;-42
2021/03/30 07:08:09;;;;;;;37.55;34.35;;;;;;;30.12;11.55;95619.16;5076102;28;20044;-42
2021/03/30 07:10:42;;;;;;;24.80;22.88;;;;;;;30.39;11.53;95628.47;5076260;28;20060;-59
2021/03/30 07:13:11;;;;;;;4.57;3.33;;;;;;;31.11;10.94;95621.94;5078967;28;20047;-65
2021/03/30 07:15:38;;;;;;;5.35;3.58;;;;;;;29.41;12.20;95623.06;5096966;28;20051;-71
2021/03/30 07:18:20;;;;;;;5.72;4.30;;;;;;;29.78;12.61;95616.72;5083270;28;20331;-69
2021/03/30 07:21:27;;;;;;;6.43;4.38;;;;;;;29.02;13.05;95627.44;5076023;28;20040;-43
2021/03/30 07:24:00;;;;;;;6.45;4.25;;;;;;;28.98;13.17;95622.03;5014310;28;20050;-42
2021/03/30 07:26:36;;;;;;;6.03;3.88;;;;;;;29.13;12.88;95620.19;5014261;28;20072;-42
2021/03/30 07:29:06;;;;;;;7.43;4.10;;;;;;;29.25;12.87;95622.59;5050039;28;20059;-71
2021/03/30 07:31:41;;;;;;;6.45;4.75;;;;;;;30.48;11.98;95610.00;5075969;28;20052;-46
2021/03/30 07:34:38;;;;;;;8.65;4.63;;;;;;;31.39;11.07;95617.66;5075654;28;20355;-42
2021/03/30 07:37:11;;;;;;;5.95;4.53;;;;;;;30.15;11.91;95637.25;5067561;28;20051;-44
2021/03/30 07:39:48;;;;;;;9.52;4.55;;;;;;;31.39;10.82;95625.78;5058085;28;20056;-43
2021/03/30 07:42:16;;;;;;;11.50;4.80;;;;;;;29.72;11.91;95629.03;5041612;28;20087;-43
2021/03/30 07:44:47;;;;;;;6.57;4.15;;;;;;;31.12;11.22;95626.19;5090962;28;20044;-43
2021/03/30 07:47:15;;;;;;;6.20;3.67;;;;;;;30.14;11.89;95619.53;5077093;28;20344;-42
2021/03/30 07:49:45;;;;;;;8.40;4.95;;;;;;;30.89;10.88;95620.41;5078107;28;20277;-43
2021/03/30 07:52:40;;;;;;;7.07;4.30;;;;;;;31.82;10.26;95624.50;5095923;28;20075;-44
2021/03/30 07:55:15;;;;;;;6.50;4.18;;;;;;;31.57;10.25;95626.50;5094436;28;20346;-44
2021/03/30 07:58:02;;;;;;;6.82;4.82;;;;;;;31.04;11.15;95621.97;5095071;28;20449;-43
2021/03/30 08:00:32;;;;;;;6.72;4.88;;;;;;;30.22;11.69;95631.91;5092721;28;20558;-42
2021/03/30 08:03:03;;;;;;;7.60;5.57;;;;;;;29.90;12.01;95624.44;5075366;28;20067;-71
2021/03/30 08:05:33;;;;;;;6.57;4.78;;;;;;;30.43;11.59;95621.13;5058191;28;20075;-70
2021/03/30 08:08:00;;;;;;;6.15;5.00;;;;;;;31.02;11.01;95618.88;5075389;28;20383;-72
2021/03/30 08:10:29;;;;;;;7.88;5.30;;;;;;;32.91;9.35;95624.25;5075351;28;20052;-41
2021/03/30 08:13:28;;;;;;;11.30;5.35;;;;;;;32.54;9.34;95629.56;5075089;28;20048;-42
2021/03/30 08:16:04;;;;;;;6.50;4.60;;;;;;;31.61;11.00;95624.56;5042709;28;20044;-42
2021/03/30 08:18:42;;;;;;;7.40;4.47;;;;;;;31.33;10.64;95619.25;5074941;28;20044;-42
2021/03/30 08:21:11;;;;;;;6.38;4.78;;;;;;;32.29;10.05;95627.00;5057055;28;20054;-43
2021/03/30 08:23:56;;;;;;;9.30;4.93;;;;;;;32.62;10.16;95622.91;5075280;28;20048;-42
2021/03/30 08:26:30;;;;;;;6.03;4.20;;;;;;;33.08;8.14;95617.91;5075265;28;20041;-43
2021/03/30 08:29:22;;;;;;;7.35;4.53;;;;;;;29.11;12.39;95625.94;5074963;28;20060;-71
2021/03/30 08:31:53;;;;;;;5.88;3.85;;;;;;;34.00;8.63;95615.38;5064443;28;20048;-43
2021/03/30 08:34:27;;;;;;;6.78;4.22;;;;;;;31.34;10.25;95618.06;5057599;28;20447;-72
2021/03/30 08:36:56;;;;;;;6.15;3.55;;;;;;;32.73;9.22;95623.59;5075108;28;20052;-72
2021/03/30 08:39:23;;;;;;;5.82;4.22;;;;;;;32.12;9.74;95617.78;5075329;28;20052;-43
2021/03/30 08:41:53;;;;;;;4.15;3.50;;;;;;;33.11;9.25;95619.81;5075086;28;20045;-68
2021/03/30 08:44:24;;;;;;;5.93;3.83;;;;;;;31.35;10.54;95619.63;5074760;28;20448;-67
2021/03/30 08:46:53;;;;;;;8.02;4.35;;;;;;;32.25;10.37;95618.09;5074923;28;20075;-54
2021/03/30 08:49:36;;;;;;;5.15;3.78;;;;;;;33.19;9.08;95622.47;5075227;28;20048;-66
2021/03/30 08:52:11;;;;;;;5.53;3.78;;;;;;;33.61;8.54;95624.75;5075233;28;20052;-66
2021/03/30 08:54:59;;;;;;;6.15;4.13;;;;;;;32.52;9.36;95624.50;5074980;28;20505;-65
2021/03/30 08:57:35;;;;;;;6.30;3.67;;;;;;;32.33;8.96;95616.94;5079345;28;20458;-53
2021/03/30 09:00:06;;;;;;;6.93;4.30;;;;;;;31.59;9.10;95613.38;5095211;28;20058;-68
2021/03/30 09:02:35;;;;;;;6.32;3.78;;;;;;;33.31;7.65;95619.22;5095125;28;20047;-44
2021/03/30 09:05:12;;;;;;;5.38;3.42;;;;;;;32.93;7.85;95615.72;5095311;28;20063;-42
2021/03/30 09:07:47;;;;;;;4.38;3.50;;;;;;;32.74;8.30;95608.88;5062848;28;20047;-42
2021/03/30 09:10:15;;;;;;;5.07;3.50;;;;;;;31.97;9.88;95608.22;5094946;28;20366;-43
2021/03/30 09:12:44;;;;;;;7.72;3.80;;;;;;;30.62;10.77;95601.16;5090835;28;20041;-71
2021/03/30 09:15:13;;;;;;;7.07;3.67;;;;;;;32.19;8.42;95612.34;5074467;28;20375;-44
2021/03/30 09:17:57;;;;;;;5.95;3.85;;;;;;;33.37;8.69;95612.25;5074643;28;20386;-43
2021/03/30 09:20:34;;;;;;;5.30;3.63;;;;;;;32.20;8.49;95609.25;5074712;28;20075;-43
2021/03/30 09:23:05;;;;;;;7.53;3.75;;;;;;;32.24;8.12;95616.56;5074522;28;20048;-43
2021/03/30 09:25:41;;;;;;;4.50;3.85;;;;;;;30.56;10.44;95603.44;5057521;28;20324;-42
2021/03/30 09:28:20;;;;;;;4.90;3.00;;;;;;;33.60;7.86;95609.66;5057947;28;20051;-42
2021/03/30 09:30:48;;;;;;;5.63;3.10;;;;;;;33.61;8.07;95600.34;5074420;28;20048;-42
2021/03/30 09:33:16;;;;;;;3.95;3.15;;;;;;;31.98;9.55;95601.63;5057886;28;20044;-59
2021/03/30 09:35:46;;;;;;;4.32;3.30;;;;;;;33.82;8.55;95603.97;5061235;28;20044;-72
2021/03/30 09:38:14;;;;;;;6.32;3.85;;;;;;;30.27;10.87;95607.25;5077902;28;20052;-43
2021/03/30 09:40:43;;;;;;;5.30;3.50;;;;;;;33.65;8.48;95600.31;5077872;28;20052;-43
2021/03/30 09:43:15;;;;;;;4.78;3.60;;;;;;;34.20;8.23;95586.44;5080456;28;20052;-44
2021/03/30 09:45:43;;;;;;;4.95;3.00;;;;;;;32.02;8.49;95586.19;5098270;28;20051;-42
2021/03/30 09:48:13;;;;;;;4.40;3.55;;;;;;;29.57;11.40;95584.31;5097998;28;20040;-43
2021/03/30 09:50:42;;;;;;;7.72;3.80;;;;;;;32.27;9.34;95586.84;5079908;28;20048;-42
2021/03/30 09:53:40;;;;;;;4.20;3.35;;;;;;;31.52;9.92;95573.66;5091751;28;20044;-56
2021/03/30 09:56:07;;;;;;;4.38;2.90;;;;;;;32.81;8.08;95576.41;5090829;28;20351;-53
2021/03/30 09:58:34;;;;;;;5.30;3.58;;;;;;;32.04;9.71;95575.75;5059909;28;20048;-72
2021/03/30 10:01:01;;;;;;;5.53;3.53;;;;;;;31.82;9.78;95575.09;5077727;28;20044;-72
2021/03/30 10:03:28;;;;;;;4.70;3.28;;;;;;;33.33;8.80;95560.03;5060577;28;20055;-72
2021/03/30 10:05:58;;;;;;;5.85;3.45;;;;;;;33.98;7.94;95563.50;5077704;28;20044;-71
2021/03/30 10:08:27;;;;;;;4.80;3.50;;;;;;;33.18;8.51;95562.09;5077524;28;20051;-71
2021/03/30 10:10:56;;;;;;;7.05;3.75;;;;;;;33.75;8.09;95558.72;5053857;28;20043;-44
2021/03/30 10:13:31;;;;;;;7.32;3.60;;;;;;;33.80;8.01;95560.22;5077245;28;20044;-43
2021/03/30 10:16:17;;;;;;;6.90;4.03;;;;;;;32.69;8.82;95552.47;5077560;28;20048;-43
2021/03/30 10:18:44;;;;;;;5.80;3.83;;;;;;;32.56;9.14;95549.50;5077166;28;20075;-43
2021/03/30 10:21:19;;;;;;;6.00;3.95;;;;;;;30.85;10.26;95546.78;5077272;28;20044;-43
2021/03/30 10:23:52;;;;;;;5.93;3.25;;;;;;;33.44;8.86;95541.69;5077768;28;20048;-43
2021/03/30 10:26:22;;;;;;;4.72;3.58;;;;;;;32.71;9.37;95542.00;5077551;28;20458;-72
2021/03/30 10:29:06;;;;;;;5.30;3.90;;;;;;;32.92;7.81;95547.25;5077126;28;20053;-73
2021/03/30 10:31:42;;;;;;;6.13;3.97;;;;;;;32.29;8.15;95538.50;5077217;28;20055;-68
2021/03/30 10:34:30;;;;;;;3.83;3.25;;;;;;;33.34;8.05;95527.13;5077306;28;20040;-43
2021/03/30 10:36:59;;;;;;;7.15;3.78;;;;;;;33.41;8.37;95535.16;5059351;28;20052;-43
2021/03/30 10:39:36;;;;;;;8.98;4.30;;;;;;;32.98;8.77;95531.34;5076751;28;20044;-43
2021/03/30 10:42:16;;;;;;;4.93;3.75;;;;;;;33.40;7.93;95533.63;5077040;28;20501;-43
2021/03/30 10:45:00;;;;;;;6.22;3.60;;;;;;;32.87;8.11;95526.03;5076255;28;20063;-42
2021/03/30 10:47:35;;;;;;;6.13;3.53;;;;;;;34.15;7.31;95521.78;5076555;28;20052;-42
2021/03/30 10:50:15;;;;;;;5.75;4.20;;;;;;;33.34;8.23;95518.22;5076532;28;20041;-43
2021/03/30 10:52:43;;;;;;;6.95;4.15;;;;;;;33.54;8.14;95524.53;5076738;28;20055;-43
2021/03/30 10:55:15;;;;;;;4.82;3.55;;;;;;;34.00;7.52;95517.75;5076402;28;20048;-42
2021/03/30 10:57:46;;;;;;;7.25;4.18;;;;;;;31.22;9.98;95522.78;5058808;28;20055;-42
2021/03/30 11:00:17;;;;;;;3.80;3.38;;;;;;;31.45;9.71;95516.13;5076529;28;20048;-46
2021/03/30 11:02:44;;;;;;;4.00;3.33;;;;;;;32.61;8.36;95507.72;5076437;28;20048;-43
2021/03/30 11:05:12;;;;;;;4.35;2.97;;;;;;;32.01;9.48;95503.50;5076518;28;20621;-42
2021/03/30 11:07:56;;;;;;;5.82;3.03;;;;;;;31.80;9.65;95504.44;5075215;28;20055;-43
2021/03/30 11:10:24;;;;;;;5.55;3.20;;;;;;;30.85;10.08;95496.25;5076238;28;20056;-43
2021/03/30 11:12:52;;;;;;;6.63;3.42;;;;;;;30.74;10.78;95494.75;5075885;28;20053;-43
2021/03/30 11:15:19;;;;;;;5.05;3.40;;;;;;;31.05;10.13;95503.94;5096772;28;20044;-42
2021/03/30 11:17:46;;;;;;;5.40;3.17;;;;;;;32.32;8.92;95497.13;5096604;28;20051;-43
2021/03/30 11:20:13;;;;;;;3.15;2.70;;;;;;;32.63;8.48;95505.38;5077985;28;20051;-44
2021/03/30 11:22:46;;;;;;;5.72;2.90;;;;;;;30.64;9.74;95497.06;5076130;28;20362;-41
2021/03/30 11:25:13;;;;;;;5.93;3.60;;;;;;;30.08;10.31;95495.13;5076120;28;20048;-43
2021/03/30 11:27:43;;;;;;;4.07;3.30;;;;;;;30.29;10.22;95497.06;5075746;28;20048;-42
2021/03/30 11:30:16;;;;;;;6.03;3.33;;;;;;;32.49;8.39;95485.38;5075834;28;20051;-42
2021/03/30 11:35:22;;;;;;;6.57;3.58;;;;;;;29.86;10.90;95482.75;5075940;28;20048;-42
2021/03/30 11:40:18;;;;;;;4.78;3.10;;;;;;;33.34;8.65;95477.56;5075746;28;20067;-43
2021/03/30 11:42:45;;;;;;;4.07;3.10;;;;;;;33.65;7.36;95472.91;5075805;28;20044;-44
2021/03/30 11:45:13;;;;;;;6.15;3.22;;;;;;;33.43;7.20;95464.28;5094242;28;20051;-43
2021/03/30 11:47:40;;;;;;;6.13;3.00;;;;;;;32.56;7.56;95468.31;5076275;28;20048;-43
2021/03/30 11:50:08;;;;;;;4.97;3.60;;;;;;;31.51;8.60;95468.66;5075571;28;20051;-43
2021/03/30 11:52:35;;;;;;;5.63;3.88;;;;;;;30.79;9.21;95468.13;5075703;28;20367;-42
2021/03/30 11:55:03;;;;;;;6.30;4.07;;;;;;;29.59;11.03;95450.00;5075680;28;20047;-43
2021/03/30 11:57:31;;;;;;;7.07;4.88;;;;;;;30.68;10.31;95465.44;5074954;28;20048;-41
2021/03/30 11:59:58;;;;;;;5.60;4.28;;;;;;;31.05;9.23;95453.41;5057602;28;20055;-43